Terminal Aerodrome Forecast
Issued by NWS

Home | Current Version | Previous Version | Text Only | Print | Product List | Glossary On
Versions: 1 2 3 4 5 6 7 8 9 10 11 12 13 14 15 16 17 18 19 20 21 22 23 24 25 26 27
000
FTUS44 KOUN 211747
TAFLAW
TAF
KLAW 211747Z 2118/2218 22005KT P6SM FEW007 SCT015 OVC026
     FM220200 15006KT 5SM BR OVC008
      TEMPO 2204/2208 1/2SM -TSRA FG OVC005CB
     FM220800 13008KT 3SM -SHRA BR OVC004
      TEMPO 2212/2216 1SM -TSRA BR BKN003 OVC006CB=

USA.gov is the U.S. government's official web portal to all federal, state and local government web resources and services.